createdAt,value
2019-03-28T00:02:28.169Z,8.00
2019-03-28T00:05:04.309Z,8.10
2019-03-28T00:07:33.165Z,8.10
2019-03-28T00:10:08.181Z,8.00
2019-03-28T00:12:37.064Z,8.10
2019-03-28T00:15:08.198Z,8.10
2019-03-28T00:17:43.599Z,8.00
2019-03-28T00:20:12.485Z,8.00
2019-03-28T00:22:49.842Z,8.00
2019-03-28T00:25:19.874Z,8.00
2019-03-28T00:28:02.471Z,7.90
2019-03-28T00:30:37.998Z,7.90
2019-03-28T00:33:13.773Z,8.00
2019-03-28T00:35:42.596Z,8.00
2019-03-28T00:38:11.433Z,8.00
2019-03-28T00:40:47.746Z,7.90
2019-03-28T00:43:16.629Z,7.90
2019-03-28T00:45:51.802Z,7.90
2019-03-28T00:48:20.733Z,7.90
2019-03-28T00:50:49.619Z,7.90
2019-03-28T00:53:25.648Z,7.90
2019-03-28T00:55:54.557Z,7.90
2019-03-28T00:58:29.685Z,7.90
2019-03-28T01:00:58.542Z,8.00
2019-03-28T01:03:27.381Z,8.00
2019-03-28T01:06:06.080Z,7.90
2019-03-28T01:08:34.930Z,7.90
2019-03-28T01:11:10.374Z,7.90
2019-03-28T01:13:39.239Z,7.80
2019-03-28T01:16:08.057Z,7.80
2019-03-28T01:18:44.009Z,7.90
2019-03-28T01:21:12.903Z,7.90
2019-03-28T01:23:41.801Z,7.80
2019-03-28T01:26:18.281Z,7.90
2019-03-28T01:28:54.471Z,7.80
2019-03-28T01:31:36.805Z,7.90
2019-03-28T01:34:05.636Z,7.90
2019-03-28T01:36:34.459Z,7.90
2019-03-28T01:39:11.248Z,7.90
2019-03-28T01:41:40.146Z,7.90
2019-03-28T01:44:17.279Z,7.90
2019-03-28T01:46:46.393Z,7.90
2019-03-28T01:49:15.415Z,7.80
2019-03-28T01:51:50.849Z,7.90
2019-03-28T01:54:19.615Z,7.90
2019-03-28T01:56:55.026Z,8.00
2019-03-28T01:59:24.942Z,7.90
2019-03-28T02:01:53.767Z,7.90
2019-03-28T02:04:29.320Z,7.90
2019-03-28T02:06:59.172Z,7.90
2019-03-28T02:09:35.026Z,7.90
2019-03-28T02:12:03.862Z,7.90
2019-03-28T02:14:32.838Z,7.90
2019-03-28T02:17:08.666Z,7.90
2019-03-28T02:19:37.571Z,7.90
2019-03-28T02:22:12.890Z,7.80
2019-03-28T02:24:41.752Z,7.90
2019-03-28T02:27:23.021Z,7.90
2019-03-28T02:29:47.769Z,7.80
2019-03-28T02:32:30.412Z,7.80
2019-03-28T02:35:05.774Z,7.80
2019-03-28T02:37:34.647Z,7.80
2019-03-28T02:40:04.262Z,7.90
2019-03-28T02:42:39.673Z,7.90
2019-03-28T02:45:08.904Z,7.90
2019-03-28T02:47:44.718Z,7.90
2019-03-28T02:50:13.581Z,7.90
2019-03-28T02:52:42.420Z,7.90
2019-03-28T02:55:17.593Z,7.90
2019-03-28T02:57:46.451Z,8.00
2019-03-28T03:00:22.758Z,8.00
2019-03-28T03:02:51.656Z,8.00
2019-03-28T03:05:20.496Z,7.90
2019-03-28T03:07:56.354Z,8.00
2019-03-28T03:10:25.212Z,7.90
2019-03-28T03:13:00.774Z,7.90
2019-03-28T03:15:30.098Z,8.00
2019-03-28T03:17:59.285Z,8.00
2019-03-28T03:20:35.321Z,8.00
2019-03-28T03:23:04.188Z,8.00
2019-03-28T03:25:39.614Z,8.00
2019-03-28T03:28:08.471Z,7.90
2019-03-28T03:30:57.114Z,7.90
2019-03-28T03:33:32.450Z,7.90
2019-03-28T03:36:07.634Z,7.90
2019-03-28T03:38:36.549Z,7.90
2019-03-28T03:41:05.717Z,7.90
2019-03-28T03:43:41.228Z,7.90
2019-03-28T03:46:10.048Z,7.90
2019-03-28T03:48:45.870Z,7.90
2019-03-28T03:51:14.910Z,7.90
2019-03-28T03:53:43.882Z,7.90
2019-03-28T03:56:19.997Z,7.80
2019-03-28T03:58:48.822Z,7.90
2019-03-28T04:01:25.498Z,7.90
2019-03-28T04:03:55.748Z,7.90
2019-03-28T04:06:24.828Z,7.90
2019-03-28T04:09:00.841Z,7.90
2019-03-28T04:11:29.646Z,7.90
2019-03-28T04:14:05.497Z,7.90
2019-03-28T04:16:34.354Z,7.90
2019-03-28T04:19:03.271Z,7.90
2019-03-28T04:21:38.616Z,7.90
2019-03-28T04:24:07.743Z,8.00
2019-03-28T04:26:43.873Z,8.00
2019-03-28T04:29:12.745Z,8.00
2019-03-28T04:31:54.535Z,8.00
2019-03-28T04:34:30.193Z,8.00
2019-03-28T04:36:59.041Z,8.00
2019-03-28T04:39:34.023Z,8.00
2019-03-28T04:42:03.509Z,8.00
2019-03-28T04:44:39.690Z,8.00
2019-03-28T04:47:14.164Z,8.00
2019-03-28T04:49:41.003Z,8.00
2019-03-28T04:52:16.335Z,8.00
2019-03-28T04:54:45.204Z,8.00
2019-03-28T04:57:20.820Z,8.00
2019-03-28T04:59:49.723Z,8.00
2019-03-28T05:02:18.621Z,8.00
2019-03-28T05:04:53.641Z,8.00
2019-03-28T05:07:22.470Z,8.10
2019-03-28T05:09:58.164Z,8.10
2019-03-28T05:12:27.078Z,8.20
2019-03-28T05:14:55.937Z,8.20
2019-03-28T05:17:31.846Z,8.20
2019-03-28T05:20:00.748Z,8.30
2019-03-28T05:22:35.693Z,8.30
2019-03-28T05:25:06.934Z,8.30
2019-03-28T05:27:35.816Z,8.30
2019-03-28T05:30:14.675Z,8.30
2019-03-28T05:32:49.971Z,8.40
2019-03-28T05:35:31.690Z,8.40
2019-03-28T05:38:00.617Z,8.40
2019-03-28T05:40:29.534Z,8.40
2019-03-28T05:43:04.806Z,8.40
2019-03-28T05:45:33.751Z,8.40
2019-03-28T05:48:09.379Z,8.40
2019-03-28T05:50:38.215Z,8.40
2019-03-28T05:53:07.072Z,8.50
2019-03-28T05:55:42.798Z,8.60
2019-03-28T05:58:11.641Z,8.60
2019-03-28T06:00:51.166Z,8.60
2019-03-28T06:03:18.041Z,8.70
2019-03-28T06:05:46.872Z,8.80
2019-03-28T06:08:21.982Z,8.90
2019-03-28T06:10:50.818Z,8.80
2019-03-28T06:13:26.396Z,8.80
2019-03-28T06:15:55.644Z,8.70
2019-03-28T06:18:24.467Z,8.70
2019-03-28T06:20:59.725Z,8.70
2019-03-28T06:23:28.478Z,8.70
2019-03-28T06:26:03.750Z,8.80
2019-03-28T06:28:32.587Z,8.80
2019-03-28T06:31:01.425Z,8.90
2019-03-28T06:33:38.487Z,8.90
2019-03-28T06:36:06.927Z,8.90
2019-03-28T06:38:50.228Z,8.80
2019-03-28T06:41:19.122Z,8.90
2019-03-28T06:43:54.230Z,8.90
2019-03-28T06:46:23.148Z,8.90
2019-03-28T06:48:51.946Z,9.10
2019-03-28T06:51:26.946Z,9.20
2019-03-28T06:53:57.131Z,9.10
2019-03-28T06:56:32.425Z,8.90
2019-03-28T06:59:01.274Z,8.80
2019-03-28T07:01:30.126Z,8.90
2019-03-28T07:04:05.540Z,9.00
2019-03-28T07:06:34.377Z,9.00
2019-03-28T07:09:09.569Z,8.90
2019-03-28T07:11:38.429Z,8.80
2019-03-28T07:14:07.277Z,8.80
2019-03-28T07:16:42.795Z,8.80
2019-03-28T07:19:11.653Z,8.80
2019-03-28T07:21:47.416Z,8.80
2019-03-28T07:24:16.240Z,8.70
2019-03-28T07:26:45.085Z,8.80
2019-03-28T07:29:20.912Z,8.80
2019-03-28T07:31:49.765Z,8.80
2019-03-28T07:34:31.681Z,8.90
2019-03-28T07:37:07.362Z,8.90
2019-03-28T07:39:49.935Z,8.90
2019-03-28T07:42:18.744Z,9.10
2019-03-28T07:44:47.913Z,9.20
2019-03-28T07:47:23.821Z,9.10
2019-03-28T07:49:52.721Z,9.10
2019-03-28T07:52:29.039Z,9.10
2019-03-28T07:54:57.866Z,9.20
2019-03-28T07:57:26.741Z,9.30
2019-03-28T08:00:04.534Z,9.40
2019-03-28T08:02:33.502Z,9.60
2019-03-28T08:05:09.006Z,9.50
2019-03-28T08:07:44.911Z,9.60
2019-03-28T08:10:09.207Z,9.60
2019-03-28T08:12:44.693Z,9.70
2019-03-28T08:15:14.184Z,9.80
2019-03-28T08:17:49.948Z,10.00
2019-03-28T08:23:19.142Z,10.10
2019-03-28T08:25:47.900Z,9.60
2019-03-28T08:28:16.717Z,9.70
2019-03-28T08:30:51.825Z,9.80
2019-03-28T08:33:20.679Z,9.80
2019-03-28T08:35:57.090Z,9.70
2019-03-28T08:38:27.237Z,9.80
2019-03-28T08:41:09.567Z,9.80
2019-03-28T08:43:38.460Z,9.80
2019-03-28T08:46:08.894Z,9.60
2019-03-28T08:48:44.392Z,9.80
2019-03-28T08:51:13.448Z,9.90
2019-03-28T08:53:48.729Z,10.20
2019-03-28T08:56:17.597Z,10.40
2019-03-28T08:58:46.522Z,10.30
2019-03-28T09:01:22.552Z,10.50
2019-03-28T09:04:13.647Z,10.70
2019-03-28T09:06:49.684Z,10.70
2019-03-28T09:09:21.157Z,10.90
2019-03-28T09:12:17.824Z,10.70
2019-03-28T09:17:46.372Z,10.60
2019-03-28T09:20:15.325Z,10.60
2019-03-28T09:22:57.757Z,10.40
2019-03-28T09:25:33.602Z,10.40
2019-03-28T09:28:09.531Z,10.50
2019-03-28T09:30:48.562Z,10.30
2019-03-28T09:33:11.198Z,10.20
2019-03-28T09:35:46.439Z,10.10
2019-03-28T09:38:15.553Z,10.50
2019-03-28T09:40:50.670Z,10.30
2019-03-28T09:43:19.516Z,10.50
2019-03-28T09:45:48.487Z,10.90
2019-03-28T09:51:22.553Z,11.20
2019-03-28T09:53:57.805Z,11.10
2019-03-28T09:56:33.353Z,11.10
2019-03-28T09:59:08.547Z,11.40
2019-03-28T10:09:25.619Z,11.40
2019-03-28T10:14:29.601Z,11.90
2019-03-28T10:17:05.568Z,11.90
2019-03-28T10:19:34.437Z,11.50
2019-03-28T10:22:09.815Z,11.20
2019-03-28T10:24:51.628Z,11.00
2019-03-28T10:34:52.744Z,11.70
2019-03-28T10:37:27.952Z,11.70
2019-03-28T10:39:56.781Z,11.70
2019-03-28T10:42:32.560Z,11.60
2019-03-28T10:45:01.340Z,11.50
2019-03-28T10:47:30.181Z,11.60
2019-03-28T10:52:34.137Z,11.70
2019-03-28T10:55:09.936Z,11.60
2019-03-28T11:00:23.415Z,11.70
2019-03-28T11:02:49.033Z,11.60
2019-03-28T11:05:18.050Z,11.50
2019-03-28T11:08:00.124Z,11.50
2019-03-28T11:10:30.587Z,11.60
2019-03-28T11:12:59.630Z,11.50
2019-03-28T11:15:35.055Z,11.50
2019-03-28T11:18:03.993Z,11.50
2019-03-28T11:20:40.126Z,11.60
2019-03-28T15:26:16.507Z,11.90
2019-03-28T15:28:51.712Z,11.90
2019-03-28T15:31:21.622Z,11.80
2019-03-28T15:34:04.746Z,11.70
2019-03-28T15:36:33.599Z,11.60
2019-03-28T15:39:02.500Z,11.40
2019-03-28T15:41:38.184Z,11.40
2019-03-28T15:44:07.010Z,11.40
2019-03-28T15:46:43.081Z,11.30
2019-03-28T15:49:11.937Z,11.30
2019-03-28T15:51:40.841Z,11.20
2019-03-28T15:54:16.177Z,11.20
2019-03-28T15:56:45.032Z,11.30
2019-03-28T15:59:20.401Z,11.40
2019-03-28T16:01:49.250Z,11.50
2019-03-28T16:04:18.103Z,11.60
2019-03-28T16:06:53.006Z,11.60
2019-03-28T16:09:21.902Z,11.60
2019-03-28T16:12:02.803Z,11.70
2019-03-28T16:14:28.312Z,11.60
2019-03-28T16:16:57.100Z,11.60
2019-03-28T16:19:35.092Z,11.40
2019-03-28T16:22:05.202Z,11.30
2019-03-28T16:24:40.252Z,11.00
2019-03-28T16:27:09.087Z,11.00
2019-03-28T16:29:44.866Z,11.10
2019-03-28T16:32:20.458Z,11.10
2019-03-28T16:34:49.269Z,11.20
2019-03-28T16:37:31.494Z,11.20
2019-03-28T16:40:00.621Z,11.00
2019-03-28T16:42:29.479Z,10.90
2019-03-28T16:45:05.049Z,10.70
2019-03-28T16:47:33.969Z,10.50
2019-03-28T16:50:09.372Z,10.30
2019-03-28T16:52:38.237Z,10.10
2019-03-28T16:55:07.197Z,10.10
2019-03-28T16:57:43.332Z,10.10
2019-03-28T17:00:14.095Z,10.20
2019-03-28T17:02:49.536Z,10.20
2019-03-28T17:05:18.358Z,10.20
2019-03-28T17:07:48.188Z,10.10
2019-03-28T17:10:47.696Z,10.10
2019-03-28T17:13:16.828Z,10.20
2019-03-28T17:15:52.696Z,10.20
2019-03-28T17:18:21.550Z,10.20
2019-03-28T17:20:50.508Z,10.20
2019-03-28T17:23:25.775Z,10.20
2019-03-28T17:25:54.721Z,10.20
2019-03-28T17:28:37.128Z,10.20
2019-03-28T17:31:12.417Z,10.20
2019-03-28T17:33:48.305Z,10.10
2019-03-28T17:36:17.174Z,10.10
2019-03-28T17:38:46.018Z,10.10
2019-03-28T17:41:21.291Z,10.10
2019-03-28T17:43:50.124Z,10.10
2019-03-28T17:46:25.150Z,10.10
2019-03-28T17:48:57.400Z,10.10
2019-03-28T17:51:24.881Z,10.10
2019-03-28T17:54:00.041Z,10.10
2019-03-28T17:56:28.880Z,10.10
2019-03-28T17:59:04.045Z,10.20
2019-03-28T18:01:33.046Z,10.20
2019-03-28T18:04:23.682Z,10.30
2019-03-28T18:07:07.436Z,10.20
2019-03-28T18:09:46.608Z,10.20
2019-03-28T18:12:47.278Z,10.10
2019-03-28T18:15:17.599Z,10.10
2019-03-28T18:17:46.458Z,10.00
2019-03-28T18:20:22.348Z,10.00
2019-03-28T18:22:51.214Z,10.10
2019-03-28T18:25:30.026Z,10.10
2019-03-28T18:27:57.398Z,10.10
2019-03-28T18:30:39.357Z,10.20
2019-03-28T18:33:14.620Z,10.20
2019-03-28T18:35:43.491Z,10.30
2019-03-28T18:38:20.106Z,10.30
2019-03-28T18:40:49.145Z,10.40
2019-03-28T18:43:25.773Z,10.40
2019-03-28T18:45:54.707Z,10.40
2019-03-28T18:48:29.591Z,10.50
2019-03-28T18:51:01.146Z,10.50
2019-03-28T18:53:30.129Z,10.60
2019-03-28T18:56:05.596Z,10.60
2019-03-28T18:58:34.501Z,10.60
2019-03-28T19:01:03.483Z,10.60
2019-03-28T19:03:39.288Z,10.70
2019-03-28T19:06:08.145Z,10.70
2019-03-28T19:08:43.591Z,10.70
2019-03-28T19:11:12.473Z,10.80
2019-03-28T19:13:50.271Z,10.80
2019-03-28T19:16:25.717Z,10.70
2019-03-28T19:18:54.612Z,10.80
2019-03-28T19:21:30.432Z,10.70
2019-03-28T19:23:59.254Z,10.70
2019-03-28T19:26:28.182Z,10.80
2019-03-28T19:29:03.193Z,10.90
2019-03-28T19:31:38.810Z,11.00
2019-03-28T19:34:21.420Z,11.00
2019-03-28T19:36:51.080Z,11.00
2019-03-28T19:39:36.629Z,11.00
2019-03-28T19:42:05.681Z,11.00
2019-03-28T19:44:34.940Z,11.10
2019-03-28T19:47:09.933Z,11.10
2019-03-28T19:49:38.806Z,11.00
2019-03-28T19:52:14.290Z,11.00
2019-03-28T19:54:43.185Z,10.90
2019-03-28T19:57:13.089Z,10.90
2019-03-28T19:59:48.332Z,10.90
2019-03-28T20:02:17.205Z,11.00
2019-03-28T20:04:52.445Z,10.90
2019-03-28T20:07:22.241Z,11.00
2019-03-28T20:09:51.763Z,10.90
2019-03-28T20:12:27.301Z,11.00
2019-03-28T20:14:56.158Z,11.00
2019-03-28T20:17:31.912Z,11.00
2019-03-28T20:20:00.756Z,11.00
2019-03-28T20:22:30.772Z,11.00
2019-03-28T20:25:07.025Z,11.10
2019-03-28T20:27:36.208Z,11.10
2019-03-28T20:30:13.614Z,11.10
2019-03-28T20:32:48.574Z,11.10
2019-03-28T20:35:30.753Z,11.10
2019-03-28T20:37:59.606Z,11.00
2019-03-28T20:40:28.440Z,11.00
2019-03-28T20:43:03.724Z,10.90
2019-03-28T20:45:32.601Z,10.90
2019-03-28T20:48:08.227Z,10.90
2019-03-28T20:50:37.089Z,10.80
2019-03-28T20:53:06.021Z,10.80
2019-03-28T20:55:41.316Z,10.70
2019-03-28T20:58:10.172Z,10.70
2019-03-28T21:00:54.380Z,10.60
2019-03-28T21:03:23.231Z,10.60
2019-03-28T21:05:52.067Z,10.60
2019-03-28T21:08:28.001Z,10.60
2019-03-28T21:10:56.869Z,10.50
2019-03-28T21:13:31.933Z,10.60
2019-03-28T21:16:00.766Z,10.60
2019-03-28T21:18:29.617Z,10.60
2019-03-28T21:21:05.145Z,10.70
2019-03-28T21:23:34.056Z,10.70
2019-03-28T21:26:09.771Z,10.70
2019-03-28T21:28:47.045Z,10.80
2019-03-28T21:31:09.109Z,10.80
2019-03-28T21:33:44.092Z,10.70
2019-03-28T21:36:12.912Z,10.80
2019-03-28T21:38:55.107Z,10.80
2019-03-28T21:41:23.962Z,10.80
2019-03-28T21:43:52.760Z,10.80
2019-03-28T21:46:28.670Z,10.70
2019-03-28T21:48:57.513Z,10.80
2019-03-28T21:51:33.524Z,10.80
2019-03-28T21:54:04.871Z,10.90
2019-03-28T21:56:32.880Z,10.90
2019-03-28T21:59:08.473Z,11.00
2019-03-28T22:01:37.310Z,11.00
2019-03-28T22:04:12.689Z,11.00
2019-03-28T22:06:43.077Z,11.10
2019-03-28T22:09:11.991Z,11.10
2019-03-28T22:11:47.609Z,11.10
2019-03-28T22:14:23.187Z,11.10
2019-03-28T22:16:59.188Z,11.10
2019-03-28T22:19:28.035Z,11.10
2019-03-28T22:21:56.873Z,11.10
2019-03-28T22:24:32.706Z,11.10
2019-03-28T22:27:01.668Z,11.10
2019-03-28T22:29:37.438Z,11.10
2019-03-28T22:32:06.258Z,11.10
2019-03-28T22:34:48.962Z,11.10
2019-03-28T22:37:24.270Z,11.10
2019-03-28T22:39:53.099Z,11.10
2019-03-28T22:42:28.729Z,11.10
2019-03-28T22:44:57.587Z,11.10
2019-03-28T22:47:35.657Z,11.10
2019-03-28T22:50:04.086Z,11.00
2019-03-28T22:52:32.928Z,11.00
2019-03-28T22:55:08.908Z,11.00
2019-03-28T22:57:37.720Z,10.90
2019-03-28T23:00:19.690Z,10.90
2019-03-28T23:02:48.517Z,10.80
2019-03-28T23:05:24.729Z,10.80
2019-03-28T23:07:53.649Z,10.70
2019-03-28T23:10:22.425Z,10.70
2019-03-28T23:12:58.280Z,10.70
2019-03-28T23:15:33.673Z,10.60
2019-03-28T23:18:08.604Z,10.60
2019-03-28T23:20:37.470Z,10.70
2019-03-28T23:23:06.304Z,10.60
2019-03-28T23:25:41.901Z,10.60
2019-03-28T23:28:10.728Z,10.60
2019-03-28T23:30:46.131Z,10.50
2019-03-28T23:33:21.410Z,10.50
2019-03-28T23:36:03.688Z,10.50
2019-03-28T23:38:32.549Z,10.40
2019-03-28T23:41:01.481Z,10.50
2019-03-28T23:43:37.522Z,10.50
2019-03-28T23:46:06.348Z,10.50
2019-03-28T23:48:41.668Z,10.40
2019-03-28T23:51:10.531Z,10.40
2019-03-28T23:53:39.385Z,10.40
2019-03-28T23:56:14.769Z,10.40
2019-03-28T23:58:43.588Z,10.30
